Lennox, California
Current Conditions -  °F | °C
As of 7:53 PM on Friday 24 Oct 2014 (Local Time) from KHHR Reporting Station
Clear Clear  
Wind Chill: 72°   Ceiling: Unl
Heat Index: 72°   Visibility: 10mi
Dew Point: 60°   Wind: 3mph
Humidity: 66%   Direction: 290°WNW
Pressure: 29.95"   Gusts: NA
Location:  33.94°N, 118.35°W
Report Text: KHHR 250253Z AUTO 29003KT 10SM CLR 22/16 A2995 RMK AO2 SLP142 T02220156 53009
Loading
Personal Weather Stations






























Interactive Weather Map New forecast layout! Learn more

10-Day Weather Forecast

Advertisements
Track Severe Weather on mobile